Time;durP1;ratioP1;P1;durP2;ratioP2;P2;SDS_P1;SDS_P2;PMS_P1;PMS_P2;Temp;Humidity;BMP_temperature;BMP_pressure;BME280_temperature;BME280_humidity;BME280_pressure;Samples;Min_cycle;Max_cycle;Signal;HPM_P1;HPM_P2
2022/01/28 00:00:32;;;;;;;;;;;6.90;99.90;;;;;;5121467;27;19975;-72
2022/01/28 00:05:26;;;;;;;;;;;7.00;99.90;;;;;;5130840;27;19971;-71
2022/01/28 00:07:53;;;;;;;;;;;7.00;99.90;;;;;;5119524;27;19937;-71
2022/01/28 00:10:20;;;;;;;;;;;7.00;99.90;;;;;;5130691;27;19908;-71
2022/01/28 00:37:48;;;;;;;;;;;7.10;99.90;;;;;;5089480;28;20007;-71
2022/01/28 00:40:10;;;;;;;;;;;7.00;99.90;;;;;;5086328;28;19907;-74
2022/01/28 00:42:36;;;;;;;;;;;7.00;99.90;;;;;;5107110;27;19968;-71
2022/01/28 00:45:02;;;;;;;;;;;7.00;99.90;;;;;;5123038;27;20361;-70
2022/01/28 00:47:27;;;;;;;;;;;7.10;99.90;;;;;;5122755;27;19916;-70
2022/01/28 00:49:53;;;;;;;;;;;7.00;99.90;;;;;;5129623;27;20300;-70
2022/01/28 00:52:18;;;;;;;;;;;6.90;99.90;;;;;;5122305;27;19919;-72
2022/01/28 00:54:44;;;;;;;;;;;6.90;99.90;;;;;;5123030;27;20316;-72
2022/01/28 00:57:09;;;;;;;;;;;6.90;99.90;;;;;;5120789;27;19943;-70
2022/01/28 00:59:35;;;;;;;;;;;6.80;99.90;;;;;;5121976;27;19911;-73
2022/01/28 01:02:01;;;;;;;;;;;6.80;99.90;;;;;;5127181;27;19915;-70
2022/01/28 01:04:26;;;;;;;;;;;6.80;99.90;;;;;;5122609;28;19913;-71
2022/01/28 01:06:52;;;;;;;;;;;6.80;99.90;;;;;;5121238;28;20011;-70
2022/01/28 01:09:17;;;;;;;;;;;6.90;99.90;;;;;;5126911;28;20211;-71
2022/01/28 01:11:43;;;;;;;;;;;7.00;99.90;;;;;;5120831;27;19919;-72
2022/01/28 01:14:09;;;;;;;;;;;7.00;99.90;;;;;;5120910;28;19918;-71
2022/01/28 01:16:47;;;;;;;;;;;7.00;99.90;;;;;;5125666;27;20015;-71
2022/01/28 01:19:21;;;;;;;;;;;7.00;99.90;;;;;;5127547;27;19930;-70
2022/01/28 01:21:53;;;;;;;;;;;7.10;99.90;;;;;;5126165;27;19911;-70
2022/01/28 01:24:22;;;;;;;;;;;7.10;99.90;;;;;;5124912;28;19911;-71
2022/01/28 01:26:48;;;;;;;;;;;7.10;99.90;;;;;;5127365;27;19919;-70
2022/01/28 01:29:16;;;;;;;;;;;7.00;99.90;;;;;;5121829;27;19912;-71
2022/01/28 01:31:43;;;;;;;;;;;7.00;99.90;;;;;;5116809;27;19916;-72
2022/01/28 01:34:13;;;;;;;;;;;7.00;99.90;;;;;;5117800;27;19911;-69
2022/01/28 01:36:39;;;;;;;;;;;6.90;99.90;;;;;;5122090;27;19920;-72
2022/01/28 01:39:07;;;;;;;;;;;7.00;99.90;;;;;;5118796;28;20506;-70
2022/01/28 01:41:41;;;;;;;;;;;7.00;99.90;;;;;;5123036;28;20353;-71
2022/01/28 01:44:17;;;;;;;;;;;7.20;99.90;;;;;;5120019;28;19912;-71
2022/01/28 01:47:14;;;;;;;;;;;7.10;99.90;;;;;;5123284;27;20464;-72
2022/01/28 01:52:15;;;;;;;;;;;7.00;99.90;;;;;;5125096;28;20280;-71
2022/01/28 01:54:43;;;;;;;;;;;6.90;99.90;;;;;;5124147;28;19920;-71
2022/01/28 01:57:10;;;;;;;;;;;6.90;99.90;;;;;;5122862;28;19977;-71
2022/01/28 01:59:37;;;;;;;;;;;6.90;99.90;;;;;;5124133;28;19918;-71
2022/01/28 02:02:03;;;;;;;;;;;6.80;99.90;;;;;;5123653;27;20835;-72
2022/01/28 02:04:28;;;;;;;;;;;6.80;99.90;;;;;;5114719;28;19989;-72
2022/01/28 02:06:55;;;;;;;;;;;6.80;99.90;;;;;;5122653;27;19930;-71
2022/01/28 02:09:20;;;;;;;;;;;6.80;99.90;;;;;;5127944;27;19927;-72
2022/01/28 02:11:46;;;;;;;;;;;6.80;99.90;;;;;;5128689;27;19925;-71
2022/01/28 02:14:12;;;;;;;;;;;7.00;99.90;;;;;;5129845;27;19937;-70
2022/01/28 02:16:37;;;;;;;;;;;7.00;99.90;;;;;;5125058;27;19919;-71
2022/01/28 02:19:03;;;;;;;;;;;6.90;99.90;;;;;;5123333;27;19931;-72
2022/01/28 02:21:32;;;;;;;;;;;6.90;99.90;;;;;;5126683;27;19912;-73
2022/01/28 02:24:02;;;;;;;;;;;7.00;99.90;;;;;;5115681;27;20057;-71
2022/01/28 02:26:31;;;;;;;;;;;7.00;99.90;;;;;;5118263;27;19919;-73
2022/01/28 02:28:58;;;;;;;;;;;6.90;99.90;;;;;;5117427;27;19911;-73
2022/01/28 02:31:27;;;;;;;;;;;6.90;99.90;;;;;;5129782;27;19912;-71
2022/01/28 02:33:56;;;;;;;;;;;6.90;99.90;;;;;;5126302;27;20389;-70
2022/01/28 02:36:21;;;;;;;;;;;6.90;99.90;;;;;;5128786;27;19920;-71
2022/01/28 02:38:47;;;;;;;;;;;7.00;99.90;;;;;;5128163;27;19947;-70
2022/01/28 02:41:13;;;;;;;;;;;6.90;99.90;;;;;;5127418;27;20011;-71
2022/01/28 02:46:10;;;;;;;;;;;6.90;99.90;;;;;;5127462;27;19994;-71
2022/01/28 02:48:39;;;;;;;;;;;6.90;99.90;;;;;;5126437;27;19930;-71
2022/01/28 02:51:17;;;;;;;;;;;6.90;99.90;;;;;;5128683;27;20464;-72
2022/01/28 02:53:48;;;;;;;;;;;6.80;99.90;;;;;;5127739;27;19987;-70
2022/01/28 02:56:23;;;;;;;;;;;6.80;99.90;;;;;;5123250;27;19933;-71
2022/01/28 02:58:49;;;;;;;;;;;6.80;99.90;;;;;;5128349;27;19915;-71
2022/01/28 03:01:16;;;;;;;;;;;6.80;99.90;;;;;;5129767;27;19911;-71
2022/01/28 03:03:43;;;;;;;;;;;6.70;99.90;;;;;;5121474;27;19916;-69
2022/01/28 03:06:09;;;;;;;;;;;6.70;99.90;;;;;;5127100;27;19927;-70
2022/01/28 03:08:34;;;;;;;;;;;6.70;99.90;;;;;;5131926;27;19911;-70
2022/01/28 03:13:33;;;;;;;;;;;6.70;99.90;;;;;;5140234;27;19915;-70
2022/01/28 03:16:08;;;;;;;;;;;6.60;99.90;;;;;;5131243;27;20263;-71
2022/01/28 03:23:45;;;;;;;;;;;6.70;99.90;;;;;;5127760;27;20006;-70
2022/01/28 03:26:10;;;;;;;;;;;6.60;99.90;;;;;;5129029;27;20040;-72
2022/01/28 03:28:36;;;;;;;;;;;6.50;99.90;;;;;;5127224;27;20253;-72
2022/01/28 03:31:01;;;;;;;;;;;6.50;99.90;;;;;;5125604;27;19963;-71
2022/01/28 03:33:27;;;;;;;;;;;6.40;99.90;;;;;;5119479;27;20401;-70
2022/01/28 03:35:53;;;;;;;;;;;6.30;99.90;;;;;;5116309;27;19915;-71
2022/01/28 03:38:18;;;;;;;;;;;6.40;99.90;;;;;;5127563;27;19923;-71
2022/01/28 03:40:44;;;;;;;;;;;6.40;99.90;;;;;;5122184;27;20022;-71
2022/01/28 03:43:09;;;;;;;;;;;6.40;99.90;;;;;;5128612;27;20399;-71
2022/01/28 03:45:35;;;;;;;;;;;6.50;99.90;;;;;;5122071;27;19918;-70
2022/01/28 03:48:01;;;;;;;;;;;6.50;99.90;;;;;;5126756;27;19911;-70
2022/01/28 03:50:26;;;;;;;;;;;6.40;99.90;;;;;;5129446;27;19986;-72
2022/01/28 03:52:52;;;;;;;;;;;6.30;99.90;;;;;;5120687;27;20015;-71
2022/01/28 03:55:18;;;;;;;;;;;6.30;99.90;;;;;;5124045;27;19919;-71
2022/01/28 03:57:43;;;;;;;;;;;6.20;99.90;;;;;;5121835;27;20331;-70
2022/01/28 04:00:10;;;;;;;;;;;6.30;99.90;;;;;;5125855;27;19919;-71
2022/01/28 04:02:41;;;;;;;;;;;6.30;99.90;;;;;;5129077;27;19911;-71
2022/01/28 04:13:24;;;;;;;;;;;6.40;99.90;;;;;;5132614;27;19918;-71
2022/01/28 04:16:05;;;;;;;;;;;6.40;99.90;;;;;;5121873;27;20250;-71
2022/01/28 04:18:31;;;;;;;;;;;6.50;99.90;;;;;;5127376;27;19915;-71
2022/01/28 04:20:56;;;;;;;;;;;6.60;99.90;;;;;;5122597;27;19918;-69
2022/01/28 04:23:22;;;;;;;;;;;6.60;99.90;;;;;;5122215;27;19957;-70
2022/01/28 04:25:47;;;;;;;;;;;6.60;99.90;;;;;;5124621;27;19912;-73
2022/01/28 04:28:13;;;;;;;;;;;6.60;99.90;;;;;;5126331;27;19915;-73
2022/01/28 04:30:38;;;;;;;;;;;6.70;99.90;;;;;;5127667;27;19912;-72
2022/01/28 04:33:04;;;;;;;;;;;6.70;99.90;;;;;;5128849;27;20291;-72
2022/01/28 04:35:30;;;;;;;;;;;6.70;99.90;;;;;;5120928;27;19959;-72
2022/01/28 04:43:55;;;;;;;;;;;6.70;99.90;;;;;;5116127;27;19915;-71
2022/01/28 04:49:26;;;;;;;;;;;6.80;99.90;;;;;;5124896;27;19922;-72
2022/01/28 04:57:41;;;;;;;;;;;6.70;99.90;;;;;;5121430;27;20277;-73
2022/01/28 05:02:56;;;;;;;;;;;6.80;99.90;;;;;;5125430;27;19958;-74
2022/01/28 05:29:01;;;;;;;;;;;6.70;99.90;;;;;;5118381;27;20011;-70
2022/01/28 05:31:26;;;;;;;;;;;6.70;99.90;;;;;;5123423;27;21195;-72
2022/01/28 05:33:52;;;;;;;;;;;6.60;99.90;;;;;;5127441;28;19911;-72
2022/01/28 05:36:18;;;;;;;;;;;6.60;99.90;;;;;;5119163;28;19919;-71
2022/01/28 05:38:44;;;;;;;;;;;6.50;99.90;;;;;;5115974;28;20010;-73
2022/01/28 05:41:09;;;;;;;;;;;6.60;99.90;;;;;;5115881;28;20538;-73
2022/01/28 05:43:35;;;;;;;;;;;6.70;99.90;;;;;;5123525;27;19916;-74
2022/01/28 05:46:01;;;;;;;;;;;6.70;99.90;;;;;;5121817;27;19911;-72
2022/01/28 05:48:27;;;;;;;;;;;6.70;99.90;;;;;;5123644;27;20006;-72
2022/01/28 05:50:59;;;;;;;;;;;6.60;99.90;;;;;;5117466;27;19920;-72
2022/01/28 05:53:25;;;;;;;;;;;6.50;99.90;;;;;;5129036;27;20288;-70
2022/01/28 05:55:50;;;;;;;;;;;6.50;99.90;;;;;;5126284;27;19908;-72
2022/01/28 05:58:16;;;;;;;;;;;6.50;99.90;;;;;;5127106;27;19927;-71
2022/01/28 06:00:41;;;;;;;;;;;6.60;99.90;;;;;;5124884;27;19911;-72
2022/01/28 06:03:07;;;;;;;;;;;6.60;99.90;;;;;;5130406;27;19998;-70
2022/01/28 06:05:33;;;;;;;;;;;6.50;99.90;;;;;;5125599;27;19919;-72
2022/01/28 06:07:58;;;;;;;;;;;6.50;99.90;;;;;;5129334;27;19956;-72
2022/01/28 06:10:24;;;;;;;;;;;6.40;99.90;;;;;;5128843;27;19915;-72
2022/01/28 06:12:50;;;;;;;;;;;6.40;99.90;;;;;;5129360;27;19922;-71
2022/01/28 06:15:24;;;;;;;;;;;6.40;99.90;;;;;;5125072;27;20492;-72
2022/01/28 06:17:50;;;;;;;;;;;6.40;99.90;;;;;;5131781;27;19966;-72
2022/01/28 06:20:19;;;;;;;;;;;6.20;99.90;;;;;;5132250;27;19961;-72
2022/01/28 06:22:45;;;;;;;;;;;6.20;99.90;;;;;;5130231;27;20006;-73
2022/01/28 06:25:16;;;;;;;;;;;6.10;99.90;;;;;;5129988;27;20289;-73
2022/01/28 06:28:07;;;;;;;;;;;5.90;99.90;;;;;;5131310;27;19959;-72
2022/01/28 06:33:21;;;;;;;;;;;5.70;99.90;;;;;;5094825;27;19927;-73
2022/01/28 06:35:47;;;;;;;;;;;5.70;99.90;;;;;;5132524;27;19911;-70
2022/01/28 06:38:13;;;;;;;;;;;5.70;99.90;;;;;;5125470;27;19965;-71
2022/01/28 06:40:39;;;;;;;;;;;5.70;99.90;;;;;;5130057;27;19915;-71
2022/01/28 06:43:07;;;;;;;;;;;5.70;99.90;;;;;;5125571;27;19958;-73
2022/01/28 06:45:33;;;;;;;;;;;5.60;99.90;;;;;;5133196;27;19919;-73
2022/01/28 06:47:59;;;;;;;;;;;5.60;99.90;;;;;;5125992;27;20038;-73
2022/01/28 06:50:24;;;;;;;;;;;5.50;99.90;;;;;;5121538;27;20405;-73
2022/01/28 06:52:50;;;;;;;;;;;5.40;99.90;;;;;;5122755;27;20423;-73
2022/01/28 06:55:16;;;;;;;;;;;5.40;99.90;;;;;;5133694;27;19911;-72
2022/01/28 06:57:48;;;;;;;;;;;5.30;99.90;;;;;;5129754;27;19938;-73
2022/01/28 07:00:45;;;;;;;;;;;5.30;99.90;;;;;;5136851;27;20437;-75
2022/01/28 07:03:24;;;;;;;;;;;5.30;99.90;;;;;;5133555;27;19934;-74
2022/01/28 07:05:50;;;;;;;;;;;5.30;99.90;;;;;;5135205;27;19963;-70
2022/01/28 07:08:16;;;;;;;;;;;5.30;99.90;;;;;;5132734;27;20388;-72
2022/01/28 07:10:50;;;;;;;;;;;5.60;99.90;;;;;;5136680;27;19943;-72
2022/01/28 07:13:16;;;;;;;;;;;5.60;99.90;;;;;;5133767;27;19912;-71
2022/01/28 07:15:52;;;;;;;;;;;5.50;99.90;;;;;;5131313;27;19922;-72
2022/01/28 07:18:24;;;;;;;;;;;5.60;99.90;;;;;;5134341;27;20010;-73
2022/01/28 07:21:02;;;;;;;;;;;5.70;99.90;;;;;;5129516;27;19911;-74
2022/01/28 07:23:30;;;;;;;;;;;5.70;99.90;;;;;;5126455;27;19911;-74
2022/01/28 07:25:57;;;;;;;;;;;5.60;99.90;;;;;;5128230;27;19968;-72
2022/01/28 07:28:31;;;;;;;;;;;5.50;99.90;;;;;;5125179;27;19926;-73
2022/01/28 07:30:58;;;;;;;;;;;5.50;99.90;;;;;;5120955;27;19911;-74
2022/01/28 07:33:23;;;;;;;;;;;5.60;99.90;;;;;;5124183;27;19911;-67
2022/01/28 07:35:56;;;;;;;;;;;5.60;99.90;;;;;;5119107;27;20301;-67
2022/01/28 07:38:24;;;;;;;;;;;5.60;99.90;;;;;;5130239;27;19923;-67
2022/01/28 07:41:13;;;;;;;;;;;5.60;99.90;;;;;;5130647;27;19934;-67
2022/01/28 07:43:42;;;;;;;;;;;5.70;99.90;;;;;;5122328;27;19911;-66
2022/01/28 07:46:08;;;;;;;;;;;5.80;99.90;;;;;;5129843;27;19961;-67
2022/01/28 07:48:33;;;;;;;;;;;5.90;99.90;;;;;;5134821;27;19987;-70
2022/01/28 07:50:59;;;;;;;;;;;5.90;99.90;;;;;;5135740;27;19907;-69
2022/01/28 07:53:24;;;;;;;;;;;5.90;99.90;;;;;;5132618;27;19911;-68
2022/01/28 07:55:50;;;;;;;;;;;5.90;99.90;;;;;;5125421;27;19973;-68
2022/01/28 07:58:16;;;;;;;;;;;6.10;99.90;;;;;;5127822;27;20031;-68
2022/01/28 08:00:42;;;;;;;;;;;6.20;99.90;;;;;;5121397;27;20018;-69
2022/01/28 08:03:07;;;;;;;;;;;6.30;99.90;;;;;;5127412;27;19957;-68
2022/01/28 08:05:33;;;;;;;;;;;6.30;99.90;;;;;;5130500;27;19918;-69
2022/01/28 08:08:04;;;;;;;;;;;6.30;99.90;;;;;;5132922;27;19912;-70
2022/01/28 08:10:29;;;;;;;;;;;6.30;99.90;;;;;;5125070;27;20262;-68
2022/01/28 08:13:00;;;;;;;;;;;6.20;99.90;;;;;;5134026;27;19918;-71
2022/01/28 08:15:27;;;;;;;;;;;6.20;99.90;;;;;;5128773;27;19912;-70
2022/01/28 08:17:53;;;;;;;;;;;6.20;99.90;;;;;;5132341;27;19964;-68
2022/01/28 08:20:20;;;;;;;;;;;6.20;99.90;;;;;;5135539;27;19908;-70
2022/01/28 08:22:46;;;;;;;;;;;6.30;99.90;;;;;;5122262;27;19926;-69
2022/01/28 08:25:13;;;;;;;;;;;6.20;99.90;;;;;;5133186;27;19911;-70
2022/01/28 08:27:38;;;;;;;;;;;6.30;99.90;;;;;;5133795;27;19912;-69
2022/01/28 08:30:07;;;;;;;;;;;6.40;99.90;;;;;;5131436;27;20067;-68
2022/01/28 08:32:33;;;;;;;;;;;6.40;99.90;;;;;;5134705;27;19929;-68
2022/01/28 08:34:58;;;;;;;;;;;6.40;99.90;;;;;;5125776;27;19911;-69
2022/01/28 08:37:24;;;;;;;;;;;6.50;99.90;;;;;;5122729;27;20524;-69
2022/01/28 08:39:53;;;;;;;;;;;6.50;99.90;;;;;;5136440;27;19998;-68
2022/01/28 08:42:19;;;;;;;;;;;6.40;99.90;;;;;;5128801;27;19965;-70
2022/01/28 08:44:44;;;;;;;;;;;6.40;99.90;;;;;;5135341;27;19912;-69
2022/01/28 08:47:10;;;;;;;;;;;6.40;99.90;;;;;;5132156;27;20321;-68
2022/01/28 08:49:42;;;;;;;;;;;6.40;99.90;;;;;;5128789;27;19985;-68
2022/01/28 08:52:09;;;;;;;;;;;6.40;99.90;;;;;;5110520;27;19911;-69
2022/01/28 08:54:34;;;;;;;;;;;6.50;99.90;;;;;;5133830;27;19907;-68
2022/01/28 08:57:00;;;;;;;;;;;6.60;99.90;;;;;;5126402;27;20110;-69
2022/01/28 08:59:26;;;;;;;;;;;6.90;99.90;;;;;;5126237;27;19961;-70
2022/01/28 09:01:51;;;;;;;;;;;7.10;99.90;;;;;;5127539;27;20428;-69
2022/01/28 09:04:17;;;;;;;;;;;7.30;99.90;;;;;;5125725;27;20254;-72
2022/01/28 09:06:42;;;;;;;;;;;7.50;99.90;;;;;;5123779;27;19919;-68
2022/01/28 09:09:08;;;;;;;;;;;7.60;99.90;;;;;;5140300;27;19990;-69
2022/01/28 09:12:07;;;;;;;;;;;7.60;99.90;;;;;;5111242;28;20317;-68
2022/01/28 09:14:21;;;;;;;;;;;7.70;99.90;;;;;;5128193;28;20415;-68
2022/01/28 09:16:47;;;;;;;;;;;7.60;99.90;;;;;;5132576;27;19911;-68
2022/01/28 09:19:13;;;;;;;;;;;7.50;99.90;;;;;;5141354;27;19954;-67
2022/01/28 09:21:39;;;;;;;;;;;7.60;99.90;;;;;;5130182;27;19933;-68
2022/01/28 09:24:04;;;;;;;;;;;7.60;99.90;;;;;;5130456;27;19994;-67
2022/01/28 09:26:30;;;;;;;;;;;7.60;99.90;;;;;;5136507;27;20311;-70
2022/01/28 09:28:56;;;;;;;;;;;7.70;99.90;;;;;;5123950;27;20036;-69
2022/01/28 09:31:22;;;;;;;;;;;7.80;99.90;;;;;;5133003;27;19912;-69
2022/01/28 09:33:47;;;;;;;;;;;7.70;99.90;;;;;;5129650;27;19923;-68
2022/01/28 09:36:13;;;;;;;;;;;7.80;99.90;;;;;;5131098;27;19972;-68
2022/01/28 09:38:38;;;;;;;;;;;7.90;99.90;;;;;;5122664;27;19922;-68
2022/01/28 09:41:05;;;;;;;;;;;7.90;99.90;;;;;;5129147;27;19912;-72
2022/01/28 09:43:31;;;;;;;;;;;8.10;99.90;;;;;;5126151;27;20396;-68
2022/01/28 09:45:56;;;;;;;;;;;8.20;99.90;;;;;;5115718;27;20078;-72
2022/01/28 09:48:23;;;;;;;;;;;8.40;99.90;;;;;;5126897;27;20226;-68
2022/01/28 09:50:48;;;;;;;;;;;8.50;99.90;;;;;;5131571;27;20314;-72
2022/01/28 09:53:14;;;;;;;;;;;8.60;99.90;;;;;;5128919;27;19994;-68
2022/01/28 09:55:40;;;;;;;;;;;8.70;99.90;;;;;;5133493;27;20066;-69
2022/01/28 09:58:06;;;;;;;;;;;8.70;99.90;;;;;;5129997;27;19915;-68
2022/01/28 10:00:33;;;;;;;;;;;8.70;99.90;;;;;;5132874;27;19924;-69
2022/01/28 10:03:03;;;;;;;;;;;8.80;99.90;;;;;;5133128;27;20445;-67
2022/01/28 10:05:30;;;;;;;;;;;8.80;99.90;;;;;;5121079;27;19965;-68
2022/01/28 10:08:00;;;;;;;;;;;8.80;99.90;;;;;;5124082;27;19911;-67
2022/01/28 10:10:26;;;;;;;;;;;8.70;99.90;;;;;;5124371;27;19914;-70
2022/01/28 10:13:09;;;;;;;;;;;8.70;99.90;;;;;;5126549;27;19996;-68
2022/01/28 10:15:35;;;;;;;;;;;8.80;99.90;;;;;;5126070;27;19972;-67
2022/01/28 10:18:00;;;;;;;;;;;8.90;99.90;;;;;;5129624;27;19919;-68
2022/01/28 10:20:26;;;;;;;;;;;9.10;99.90;;;;;;5134587;27;19907;-69
2022/01/28 10:22:54;;;;;;;;;;;9.00;99.90;;;;;;5125770;27;20002;-69
2022/01/28 10:25:27;;;;;;;;;;;9.10;99.90;;;;;;5133604;27;19984;-69
2022/01/28 10:28:01;;;;;;;;;;;9.00;99.90;;;;;;5128156;27;19919;-67
2022/01/28 10:30:27;;;;;;;;;;;9.00;99.90;;;;;;5125818;27;19954;-70
2022/01/28 10:33:08;;;;;;;;;;;8.70;99.90;;;;;;5128273;27;19955;-69
2022/01/28 10:35:34;;;;;;;;;;;8.50;99.90;;;;;;5133210;27;19911;-70
2022/01/28 10:38:02;;;;;;;;;;;8.30;99.90;;;;;;5130631;27;20022;-68
2022/01/28 10:40:28;;;;;;;;;;;8.20;99.90;;;;;;5116733;27;19916;-69
2022/01/28 10:42:53;;;;;;;;;;;8.20;99.90;;;;;;5129792;27;19996;-71
2022/01/28 10:45:25;;;;;;;;;;;8.10;99.90;;;;;;5129566;27;20014;-69
2022/01/28 10:47:53;;;;;;;;;;;8.10;99.90;;;;;;5126913;27;20010;-68
2022/01/28 10:50:28;;;;;;;;;;;8.00;99.90;;;;;;5132806;27;19907;-72
2022/01/28 10:52:57;;;;;;;;;;;8.00;99.90;;;;;;5129212;27;19923;-68
2022/01/28 10:55:22;;;;;;;;;;;8.00;99.90;;;;;;5129854;27;19915;-68
2022/01/28 10:57:58;;;;;;;;;;;8.10;99.90;;;;;;5132685;27;19915;-69
2022/01/28 11:00:31;;;;;;;;;;;8.20;99.90;;;;;;5127041;27;19960;-67
2022/01/28 11:03:01;;;;;;;;;;;8.30;99.90;;;;;;5132682;27;20009;-71
2022/01/28 11:05:27;;;;;;;;;;;8.40;99.90;;;;;;5121673;27;19911;-72
2022/01/28 11:07:53;;;;;;;;;;;8.40;99.90;;;;;;5126195;27;20389;-69
2022/01/28 11:10:19;;;;;;;;;;;8.50;99.90;;;;;;5129082;27;19919;-69
2022/01/28 11:12:45;;;;;;;;;;;8.50;99.90;;;;;;5128063;27;19919;-68
2022/01/28 11:15:11;;;;;;;;;;;8.40;99.90;;;;;;5124402;27;19911;-70
2022/01/28 11:17:37;;;;;;;;;;;8.50;99.90;;;;;;5128586;27;19915;-70
2022/01/28 11:20:04;;;;;;;;;;;8.50;99.90;;;;;;5130307;27;19960;-69
2022/01/28 11:22:47;;;;;;;;;;;8.50;99.90;;;;;;5133937;27;19908;-69
2022/01/28 11:25:26;;;;;;;;;;;8.40;99.90;;;;;;5129540;27;19987;-69
2022/01/28 11:27:52;;;;;;;;;;;8.50;99.90;;;;;;5130005;27;20029;-69
2022/01/28 11:30:20;;;;;;;;;;;8.70;99.90;;;;;;5132280;27;20376;-68
2022/01/28 11:33:03;;;;;;;;;;;8.80;99.90;;;;;;5130579;27;19911;-69
2022/01/28 11:35:31;;;;;;;;;;;9.00;99.90;;;;;;5106747;27;19920;-68
2022/01/28 11:38:03;;;;;;;;;;;9.20;99.90;;;;;;5119658;27;19961;-67
2022/01/28 11:40:40;;;;;;;;;;;9.20;99.90;;;;;;5115158;27;20406;-68
2022/01/28 11:43:25;;;;;;;;;;;9.10;99.90;;;;;;5121794;27;19956;-67
2022/01/28 11:46:06;;;;;;;;;;;9.00;99.90;;;;;;5124945;27;19918;-66
2022/01/28 11:48:51;;;;;;;;;;;9.10;99.90;;;;;;5127787;27;19918;-68
2022/01/28 11:51:16;;;;;;;;;;;9.20;99.90;;;;;;5124985;27;19911;-67
2022/01/28 11:53:56;;;;;;;;;;;9.20;99.90;;;;;;5132460;27;19908;-66
2022/01/28 11:56:21;;;;;;;;;;;9.10;99.90;;;;;;5130040;27;19919;-69
2022/01/28 11:59:00;;;;;;;;;;;9.00;99.90;;;;;;5131600;27;20006;-68
2022/01/28 12:01:45;;;;;;;;;;;8.90;99.90;;;;;;5120980;27;19945;-71
2022/01/28 12:04:26;;;;;;;;;;;8.70;99.90;;;;;;5124913;27;20831;-67
2022/01/28 12:07:13;;;;;;;;;;;8.70;99.90;;;;;;5130120;27;19915;-67
2022/01/28 12:09:39;;;;;;;;;;;8.60;99.90;;;;;;5122498;27;19916;-67
2022/01/28 12:12:10;;;;;;;;;;;8.60;99.90;;;;;;5124091;27;19935;-70
2022/01/28 12:15:22;;;;;;;;;;;8.70;99.90;;;;;;5121909;27;19915;-67
2022/01/28 12:17:49;;;;;;;;;;;8.60;99.90;;;;;;5131164;27;19915;-67
2022/01/28 12:20:15;;;;;;;;;;;8.70;99.90;;;;;;5128072;27;19911;-66
2022/01/28 12:22:55;;;;;;;;;;;8.70;99.90;;;;;;5131534;27;19911;-68
2022/01/28 12:25:36;;;;;;;;;;;8.70;99.90;;;;;;5118799;27;19919;-66
2022/01/28 12:28:14;;;;;;;;;;;8.70;99.90;;;;;;5125272;27;19943;-70
2022/01/28 12:30:42;;;;;;;;;;;8.80;99.90;;;;;;5120122;27;20404;-72
2022/01/28 12:33:09;;;;;;;;;;;8.90;99.90;;;;;;5118101;27;19960;-71
2022/01/28 12:35:35;;;;;;;;;;;8.90;99.90;;;;;;5119670;27;19933;-69
2022/01/28 12:38:03;;;;;;;;;;;8.90;99.90;;;;;;5124121;27;19915;-69
2022/01/28 12:40:35;;;;;;;;;;;8.80;99.90;;;;;;5126767;27;20280;-67
2022/01/28 12:43:02;;;;;;;;;;;8.80;99.90;;;;;;5123251;27;20422;-70
2022/01/28 12:45:27;;;;;;;;;;;8.70;99.90;;;;;;5131707;27;19919;-70
2022/01/28 12:47:53;;;;;;;;;;;8.60;99.90;;;;;;5111773;27;19998;-67
2022/01/28 12:50:19;;;;;;;;;;;8.50;99.90;;;;;;5125748;27;20006;-68
2022/01/28 12:52:46;;;;;;;;;;;8.40;99.90;;;;;;5123050;27;20034;-68
2022/01/28 12:55:12;;;;;;;;;;;8.40;99.90;;;;;;5126578;27;20263;-66
2022/01/28 12:57:45;;;;;;;;;;;8.30;99.90;;;;;;5125829;27;19916;-66
2022/01/28 13:00:19;;;;;;;;;;;8.30;99.90;;;;;;5128820;27;19912;-67
2022/01/28 13:02:50;;;;;;;;;;;8.30;99.90;;;;;;5121945;28;20292;-67
2022/01/28 13:05:32;;;;;;;;;;;8.20;99.90;;;;;;5132836;28;20058;-65
2022/01/28 13:10:43;;;;;;;;;;;8.10;99.90;;;;;;5130471;28;20027;-67
2022/01/28 13:13:09;;;;;;;;;;;8.10;99.90;;;;;;5123212;27;19922;-67
2022/01/28 13:15:35;;;;;;;;;;;8.20;99.90;;;;;;5130285;28;20052;-69
2022/01/28 13:18:02;;;;;;;;;;;8.20;99.90;;;;;;5116621;28;19931;-71
2022/01/28 13:20:32;;;;;;;;;;;8.30;99.90;;;;;;5120908;28;19915;-66
2022/01/28 13:22:59;;;;;;;;;;;8.20;99.90;;;;;;5116099;28;19919;-65
2022/01/28 13:25:26;;;;;;;;;;;8.20;99.90;;;;;;5131067;28;20361;-66
2022/01/28 13:27:58;;;;;;;;;;;8.30;99.90;;;;;;5128677;28;20396;-68
2022/01/28 13:30:24;;;;;;;;;;;8.50;99.90;;;;;;5113499;28;19915;-67
2022/01/28 13:32:51;;;;;;;;;;;8.60;99.90;;;;;;5130127;27;19907;-66
2022/01/28 13:35:19;;;;;;;;;;;8.70;99.90;;;;;;5115944;28;19965;-67
2022/01/28 13:37:46;;;;;;;;;;;8.70;99.90;;;;;;5125776;28;19983;-67
2022/01/28 13:40:12;;;;;;;;;;;8.70;99.90;;;;;;5132051;28;19958;-66
2022/01/28 13:42:54;;;;;;;;;;;8.80;99.90;;;;;;5122199;27;19961;-66
2022/01/28 13:45:27;;;;;;;;;;;8.90;99.90;;;;;;5130368;28;19955;-68
2022/01/28 13:47:58;;;;;;;;;;;9.00;99.90;;;;;;5117597;28;19911;-67
2022/01/28 13:50:32;;;;;;;;;;;9.00;99.90;;;;;;5114012;28;20063;-67
2022/01/28 13:56:04;;;;;;;;;;;9.00;99.90;;;;;;5102450;28;19955;-71
2022/01/28 13:58:41;;;;;;;;;;;9.10;99.90;;;;;;5123934;28;19954;-66
2022/01/28 14:01:10;;;;;;;;;;;9.00;99.90;;;;;;5125953;28;19951;-69
2022/01/28 14:03:46;;;;;;;;;;;9.00;99.90;;;;;;5127834;27;20006;-69
2022/01/28 14:06:16;;;;;;;;;;;8.90;99.90;;;;;;5129248;27;20383;-69
2022/01/28 14:08:45;;;;;;;;;;;8.90;99.90;;;;;;5128116;27;19911;-66
2022/01/28 14:11:35;;;;;;;;;;;8.80;99.90;;;;;;5131354;27;19957;-69
2022/01/28 14:14:04;;;;;;;;;;;8.70;99.90;;;;;;5119587;27;19912;-70
2022/01/28 14:16:29;;;;;;;;;;;8.70;99.90;;;;;;5135335;27;19962;-67
2022/01/28 14:18:55;;;;;;;;;;;8.70;99.90;;;;;;5132775;27;19978;-66
2022/01/28 14:21:20;;;;;;;;;;;8.80;99.90;;;;;;5133719;27;19927;-67
2022/01/28 14:23:46;;;;;;;;;;;8.80;99.90;;;;;;5124054;27;19912;-68
2022/01/28 14:26:12;;;;;;;;;;;8.70;99.90;;;;;;5128580;27;19911;-69
2022/01/28 14:28:50;;;;;;;;;;;8.70;99.90;;;;;;5127882;27;19915;-69
2022/01/28 14:31:16;;;;;;;;;;;8.70;99.90;;;;;;5119898;27;19911;-67
2022/01/28 14:33:44;;;;;;;;;;;8.80;99.90;;;;;;5130391;27;19998;-68
2022/01/28 14:36:10;;;;;;;;;;;8.70;99.90;;;;;;5132546;27;19907;-66
2022/01/28 14:38:35;;;;;;;;;;;8.70;99.90;;;;;;5132562;27;19923;-68
2022/01/28 14:41:01;;;;;;;;;;;8.70;99.90;;;;;;5134034;27;19908;-67
2022/01/28 14:43:27;;;;;;;;;;;8.60;99.90;;;;;;5125139;27;19963;-65
2022/01/28 14:45:52;;;;;;;;;;;8.70;99.90;;;;;;5129397;27;20552;-66
2022/01/28 14:48:21;;;;;;;;;;;8.70;99.90;;;;;;5126681;27;19957;-70
2022/01/28 14:50:47;;;;;;;;;;;8.60;99.90;;;;;;5130275;27;19994;-65
2022/01/28 14:53:13;;;;;;;;;;;8.70;99.90;;;;;;5131966;27;19922;-66
2022/01/28 14:55:40;;;;;;;;;;;8.80;99.90;;;;;;5132459;27;19907;-66
2022/01/28 14:58:06;;;;;;;;;;;8.90;99.90;;;;;;5122416;27;19933;-68
2022/01/28 15:00:32;;;;;;;;;;;9.00;99.90;;;;;;5133661;27;19912;-66
2022/01/28 15:02:59;;;;;;;;;;;9.20;99.90;;;;;;5130965;27;20006;-67
2022/01/28 15:05:27;;;;;;;;;;;9.40;99.90;;;;;;5119422;27;19930;-68
2022/01/28 15:07:55;;;;;;;;;;;9.40;99.90;;;;;;5129689;27;20401;-69
2022/01/28 15:10:27;;;;;;;;;;;9.40;99.90;;;;;;5126769;27;19922;-67
2022/01/28 15:12:55;;;;;;;;;;;9.40;99.90;;;;;;5126325;27;19993;-69
2022/01/28 15:15:22;;;;;;;;;;;9.50;99.90;;;;;;5117798;27;19926;-70
2022/01/28 15:17:47;;;;;;;;;;;9.50;99.90;;;;;;5128049;27;20904;-68
2022/01/28 15:20:15;;;;;;;;;;;9.40;99.90;;;;;;5133887;27;19925;-69
2022/01/28 15:22:44;;;;;;;;;;;9.40;99.90;;;;;;5127646;27;19973;-70
2022/01/28 15:25:37;;;;;;;;;;;9.40;99.90;;;;;;5134425;27;19914;-66
2022/01/28 15:28:16;;;;;;;;;;;9.30;99.90;;;;;;5121950;27;19915;-69
2022/01/28 15:36:16;;;;;;;;;;;9.20;99.90;;;;;;5131724;27;19953;-67
2022/01/28 15:38:42;;;;;;;;;;;9.10;99.90;;;;;;5127372;27;19916;-69
2022/01/28 15:41:09;;;;;;;;;;;9.00;99.90;;;;;;5132658;27;20422;-66
2022/01/28 15:43:35;;;;;;;;;;;8.90;99.90;;;;;;5117776;27;19915;-67
2022/01/28 15:46:01;;;;;;;;;;;8.80;99.90;;;;;;5128537;27;19915;-68
2022/01/28 15:48:26;;;;;;;;;;;8.90;99.90;;;;;;5130736;27;19912;-65
2022/01/28 15:50:55;;;;;;;;;;;8.80;99.90;;;;;;5119314;27;20397;-67
2022/01/28 15:53:24;;;;;;;;;;;8.80;99.90;;;;;;5111350;27;19911;-67
2022/01/28 15:55:50;;;;;;;;;;;8.80;99.90;;;;;;5118507;27;19912;-65
2022/01/28 15:58:15;;;;;;;;;;;8.90;99.90;;;;;;5127863;27;19922;-65
2022/01/28 16:00:42;;;;;;;;;;;8.80;99.90;;;;;;5128320;27;19998;-66
2022/01/28 16:03:08;;;;;;;;;;;8.80;99.90;;;;;;5119822;27;19927;-68
2022/01/28 16:05:34;;;;;;;;;;;8.80;99.90;;;;;;5131053;27;19912;-67
2022/01/28 16:07:59;;;;;;;;;;;8.70;99.90;;;;;;5132341;27;19911;-67
2022/01/28 16:10:35;;;;;;;;;;;8.50;99.90;;;;;;5131467;27;19947;-68
2022/01/28 16:13:54;;;;;;;;;;;8.40;99.90;;;;;;5123212;27;19915;-70
2022/01/28 16:18:21;;;;;;;;;;;8.20;99.90;;;;;;5128115;27;19927;-66
2022/01/28 16:20:47;;;;;;;;;;;8.20;99.90;;;;;;5131429;27;19912;-69
2022/01/28 16:23:12;;;;;;;;;;;8.20;99.90;;;;;;5117080;27;19919;-67
2022/01/28 16:25:38;;;;;;;;;;;8.10;99.90;;;;;;5126539;27;20370;-66